Time;durP1;ratioP1;P1;durP2;ratioP2;P2;SDS_P1;SDS_P2;PMS_P1;PMS_P2;Temp;Humidity;BMP_temperature;BMP_pressure;BME280_temperature;BME280_humidity;BME280_pressure;Samples;Min_cycle;Max_cycle;Signal;HPM_P1;HPM_P2
2023/12/27 00:00:52;;;;;;;;;;;;;;;;;;5107567;28;19924;-66
2023/12/27 00:03:18;;;;;;;;;;;;;;;;;;5103904;28;19928;-66
2023/12/27 00:05:44;;;;;;;;;;;;;;;;;;5104952;28;19924;-66
2023/12/27 00:08:10;;;;;;;;;;;;;;;;;;5109088;28;20016;-64
2023/12/27 00:10:36;;;;;;;;;;;;;;;;;;5100796;28;20382;-65
2023/12/27 00:13:01;;;;;;;;;;;;;;;;;;5110494;28;19931;-65
2023/12/27 00:15:27;;;;;;;;;;;;;;;;;;5115512;28;19923;-65
2023/12/27 00:17:53;;;;;;;;;;;;;;;;;;5105447;28;19924;-65
2023/12/27 00:20:19;;;;;;;;;;;;;;;;;;5113456;28;20373;-67
2023/12/27 00:22:45;;;;;;;;;;;;;;;;;;5112317;28;19920;-66
2023/12/27 00:25:11;;;;;;;;;;;;;;;;;;5109636;28;19931;-66
2023/12/27 00:27:37;;;;;;;;;;;;;;;;;;5090648;28;19919;-66
2023/12/27 00:30:03;;;;;;;;;;;;;;;;;;5102261;28;20354;-66
2023/12/27 00:32:29;;;;;;;;;;;;;;;;;;5110850;27;19919;-65
2023/12/27 00:34:55;;;;;;;;;;;;;;;;;;5115937;28;19920;-66
2023/12/27 00:37:21;;;;;;;;;;;;;;;;;;5115640;28;19920;-66
2023/12/27 00:39:47;;;;;;;;;;;;;;;;;;5094567;28;20006;-66
2023/12/27 00:42:13;;;;;;;;;;;;;;;;;;5117043;28;19920;-66
2023/12/27 00:44:39;;;;;;;;;;;;;;;;;;5116087;28;19937;-66
2023/12/27 00:47:05;;;;;;;;;;;;;;;;;;5116797;28;19919;-66
2023/12/27 00:49:31;;;;;;;;;;;;;;;;;;5116788;28;20097;-66
2023/12/27 00:51:57;;;;;;;;;;;;;;;;;;5116808;28;19919;-66
2023/12/27 00:54:23;;;;;;;;;;;;;;;;;;5115495;28;20285;-66
2023/12/27 00:56:49;;;;;;;;;;;;;;;;;;5118072;22;19924;-68
2023/12/27 00:59:15;;;;;;;;;;;;;;;;;;5106647;28;19923;-68
2023/12/27 01:01:43;;;;;;;;;;;;;;;;;;5110025;28;19946;-68
2023/12/27 01:04:09;;;;;;;;;;;;;;;;;;5125079;27;19923;-68
2023/12/27 01:06:35;;;;;;;;;;;;;;;;;;5105536;28;19926;-69
2023/12/27 01:09:01;;;;;;;;;;;;;;;;;;5110942;28;19923;-68
2023/12/27 01:11:27;;;;;;;;;;;;;;;;;;5108993;28;19969;-68
2023/12/27 01:13:53;;;;;;;;;;;;;;;;;;5106068;28;20348;-68
2023/12/27 01:16:19;;;;;;;;;;;;;;;;;;5107443;28;19924;-68
2023/12/27 01:18:45;;;;;;;;;;;;;;;;;;5110507;28;19977;-68
2023/12/27 01:21:13;;;;;;;;;;;;;;;;;;5108738;28;19927;-68
2023/12/27 01:23:39;;;;;;;;;;;;;;;;;;5095836;28;19981;-68
2023/12/27 01:26:05;;;;;;;;;;;;;;;;;;5091141;28;20567;-68
2023/12/27 01:28:31;;;;;;;;;;;;;;;;;;5096354;28;19920;-68
2023/12/27 01:30:57;;;;;;;;;;;;;;;;;;5098966;28;19923;-69
2023/12/27 01:33:23;;;;;;;;;;;;;;;;;;5098099;28;19920;-68
2023/12/27 01:35:49;;;;;;;;;;;;;;;;;;5101444;28;19927;-68
2023/12/27 01:38:15;;;;;;;;;;;;;;;;;;5091647;28;20316;-68
2023/12/27 01:40:41;;;;;;;;;;;;;;;;;;5103474;28;20606;-68
2023/12/27 01:43:07;;;;;;;;;;;;;;;;;;5105659;28;19920;-68
2023/12/27 01:45:33;;;;;;;;;;;;;;;;;;5111572;27;19930;-68
2023/12/27 01:47:58;;;;;;;;;;;;;;;;;;5076987;28;20557;-68
2023/12/27 01:50:24;;;;;;;;;;;;;;;;;;5102542;28;19930;-68
2023/12/27 01:52:50;;;;;;;;;;;;;;;;;;5102540;28;19934;-69
2023/12/27 01:55:16;;;;;;;;;;;;;;;;;;5101075;28;19920;-68
2023/12/27 01:57:42;;;;;;;;;;;;;;;;;;5106376;28;20061;-69
2023/12/27 02:00:09;;;;;;;;;;;;;;;;;;5100584;28;20705;-68
2023/12/27 02:02:35;;;;;;;;;;;;;;;;;;5097802;28;19920;-69
2023/12/27 02:05:01;;;;;;;;;;;;;;;;;;5105489;28;19953;-68
2023/12/27 02:07:27;;;;;;;;;;;;;;;;;;5099388;28;19924;-69
2023/12/27 02:09:53;;;;;;;;;;;;;;;;;;5108047;28;20276;-68
2023/12/27 02:12:18;;;;;;;;;;;;;;;;;;5100866;28;20306;-69
2023/12/27 02:14:44;;;;;;;;;;;;;;;;;;5100014;28;19928;-68
2023/12/27 02:17:10;;;;;;;;;;;;;;;;;;5097836;28;19936;-68
2023/12/27 02:19:36;;;;;;;;;;;;;;;;;;5097953;28;19950;-68
2023/12/27 02:22:02;;;;;;;;;;;;;;;;;;5106692;28;19981;-68
2023/12/27 02:24:28;;;;;;;;;;;;;;;;;;5098610;28;20480;-68
2023/12/27 02:26:54;;;;;;;;;;;;;;;;;;5092517;28;19961;-69
2023/12/27 02:29:20;;;;;;;;;;;;;;;;;;5098289;28;19919;-68
2023/12/27 02:31:46;;;;;;;;;;;;;;;;;;5099491;28;20006;-68
2023/12/27 02:34:12;;;;;;;;;;;;;;;;;;5080473;28;19931;-68
2023/12/27 02:36:38;;;;;;;;;;;;;;;;;;5099433;28;19924;-68
2023/12/27 02:39:04;;;;;;;;;;;;;;;;;;5095892;28;19924;-68
2023/12/27 02:41:30;;;;;;;;;;;;;;;;;;5096596;28;19930;-68
2023/12/27 02:43:56;;;;;;;;;;;;;;;;;;5097994;28;19924;-68
2023/12/27 02:46:21;;;;;;;;;;;;;;;;;;5095602;28;19924;-67
2023/12/27 02:48:47;;;;;;;;;;;;;;;;;;5099900;28;19927;-70
2023/12/27 02:51:13;;;;;;;;;;;;;;;;;;5085363;28;20264;-68
2023/12/27 02:53:39;;;;;;;;;;;;;;;;;;5102487;28;19928;-68
2023/12/27 02:56:05;;;;;;;;;;;;;;;;;;5099169;28;19928;-69
2023/12/27 02:58:31;;;;;;;;;;;;;;;;;;5106704;28;19919;-68
2023/12/27 03:00:57;;;;;;;;;;;;;;;;;;5102480;28;20295;-68
2023/12/27 03:03:23;;;;;;;;;;;;;;;;;;5102835;28;19924;-68
2023/12/27 03:05:49;;;;;;;;;;;;;;;;;;5112114;28;19992;-68
2023/12/27 03:08:15;;;;;;;;;;;;;;;;;;5114796;28;19967;-68
2023/12/27 03:10:41;;;;;;;;;;;;;;;;;;5108219;28;19928;-69
2023/12/27 03:13:07;;;;;;;;;;;;;;;;;;5113457;28;19931;-68
2023/12/27 03:15:33;;;;;;;;;;;;;;;;;;5115213;28;19927;-68
2023/12/27 03:17:59;;;;;;;;;;;;;;;;;;5113040;28;19931;-68
2023/12/27 03:20:25;;;;;;;;;;;;;;;;;;5103621;28;19927;-68
2023/12/27 03:22:50;;;;;;;;;;;;;;;;;;5112853;28;19923;-68
2023/12/27 03:25:16;;;;;;;;;;;;;;;;;;5111316;28;20332;-68
2023/12/27 03:27:42;;;;;;;;;;;;;;;;;;5113515;28;19927;-69
2023/12/27 03:30:08;;;;;;;;;;;;;;;;;;5109254;28;19920;-68
2023/12/27 03:32:34;;;;;;;;;;;;;;;;;;5112717;28;19923;-68
2023/12/27 03:35:00;;;;;;;;;;;;;;;;;;5108683;28;19923;-67
2023/12/27 03:37:26;;;;;;;;;;;;;;;;;;5112801;28;19994;-68
2023/12/27 03:39:52;;;;;;;;;;;;;;;;;;5106831;28;20331;-68
2023/12/27 03:42:19;;;;;;;;;;;;;;;;;;5109498;28;19947;-68
2023/12/27 03:44:45;;;;;;;;;;;;;;;;;;5113718;28;19924;-69
2023/12/27 03:47:11;;;;;;;;;;;;;;;;;;5112715;28;19931;-68
2023/12/27 03:49:37;;;;;;;;;;;;;;;;;;5109739;28;19920;-68
2023/12/27 03:52:03;;;;;;;;;;;;;;;;;;5104364;28;20054;-68
2023/12/27 03:54:29;;;;;;;;;;;;;;;;;;5108813;28;20045;-69
2023/12/27 03:56:55;;;;;;;;;;;;;;;;;;5109494;28;20331;-68
2023/12/27 03:59:20;;;;;;;;;;;;;;;;;;5113721;28;20008;-69
2023/12/27 04:01:46;;;;;;;;;;;;;;;;;;5110840;28;19924;-68
2023/12/27 04:04:13;;;;;;;;;;;;;;;;;;5091859;28;19963;-68
2023/12/27 04:06:39;;;;;;;;;;;;;;;;;;5126691;27;19931;-68
2023/12/27 04:09:05;;;;;;;;;;;;;;;;;;5096559;28;20490;-68
2023/12/27 04:11:31;;;;;;;;;;;;;;;;;;5101290;28;19924;-69
2023/12/27 04:13:57;;;;;;;;;;;;;;;;;;5108837;28;19931;-68
2023/12/27 04:16:23;;;;;;;;;;;;;;;;;;5112290;28;19920;-68
2023/12/27 04:18:49;;;;;;;;;;;;;;;;;;5114266;28;19931;-68
2023/12/27 04:21:15;;;;;;;;;;;;;;;;;;5103995;28;19923;-69
2023/12/27 04:23:41;;;;;;;;;;;;;;;;;;5112201;28;19923;-68
2023/12/27 04:26:07;;;;;;;;;;;;;;;;;;5112375;28;19930;-68
2023/12/27 04:28:33;;;;;;;;;;;;;;;;;;5105831;28;19920;-69
2023/12/27 04:30:59;;;;;;;;;;;;;;;;;;5098173;28;19928;-68
2023/12/27 04:33:25;;;;;;;;;;;;;;;;;;5084565;28;20006;-68
2023/12/27 04:35:51;;;;;;;;;;;;;;;;;;5096971;28;19995;-68
2023/12/27 04:38:16;;;;;;;;;;;;;;;;;;5106022;28;20007;-68
2023/12/27 04:40:43;;;;;;;;;;;;;;;;;;5116078;27;20330;-68
2023/12/27 04:43:09;;;;;;;;;;;;;;;;;;5105867;28;20006;-69
2023/12/27 04:45:35;;;;;;;;;;;;;;;;;;5102193;28;20027;-69
2023/12/27 04:48:01;;;;;;;;;;;;;;;;;;5107430;28;19974;-69
2023/12/27 04:50:27;;;;;;;;;;;;;;;;;;5103027;28;19946;-67
2023/12/27 04:52:53;;;;;;;;;;;;;;;;;;5109219;28;19920;-68
2023/12/27 04:55:18;;;;;;;;;;;;;;;;;;5104407;28;19924;-68
2023/12/27 04:57:44;;;;;;;;;;;;;;;;;;5109183;28;19996;-69
2023/12/27 05:00:10;;;;;;;;;;;;;;;;;;5081186;28;20361;-69
2023/12/27 05:02:36;;;;;;;;;;;;;;;;;;5107553;28;20057;-69
2023/12/27 05:05:02;;;;;;;;;;;;;;;;;;5103808;28;19960;-68
2023/12/27 05:07:28;;;;;;;;;;;;;;;;;;5105591;28;19928;-68
2023/12/27 05:09:54;;;;;;;;;;;;;;;;;;5102044;28;19933;-69
2023/12/27 05:12:20;;;;;;;;;;;;;;;;;;5103995;28;19950;-68
2023/12/27 05:14:46;;;;;;;;;;;;;;;;;;5107353;28;20273;-69
2023/12/27 05:17:12;;;;;;;;;;;;;;;;;;5101360;28;20036;-69
2023/12/27 05:19:39;;;;;;;;;;;;;;;;;;5105103;28;19920;-68
2023/12/27 05:22:04;;;;;;;;;;;;;;;;;;5106827;28;19920;-69
2023/12/27 05:24:30;;;;;;;;;;;;;;;;;;5100211;28;20407;-67
2023/12/27 05:26:56;;;;;;;;;;;;;;;;;;5103224;28;20518;-68
2023/12/27 05:29:22;;;;;;;;;;;;;;;;;;5107208;28;19955;-68
2023/12/27 05:31:48;;;;;;;;;;;;;;;;;;5109218;28;20002;-68
2023/12/27 05:34:14;;;;;;;;;;;;;;;;;;5107239;28;19927;-68
2023/12/27 05:36:40;;;;;;;;;;;;;;;;;;5104289;28;19923;-69
2023/12/27 05:39:06;;;;;;;;;;;;;;;;;;5095948;28;19961;-69
2023/12/27 05:41:32;;;;;;;;;;;;;;;;;;5083955;28;20657;-68
2023/12/27 05:43:58;;;;;;;;;;;;;;;;;;5106452;28;19977;-68
2023/12/27 05:46:24;;;;;;;;;;;;;;;;;;5105791;28;19949;-68
2023/12/27 05:48:50;;;;;;;;;;;;;;;;;;5099253;28;19923;-68
2023/12/27 05:51:16;;;;;;;;;;;;;;;;;;5106958;28;20290;-69
2023/12/27 05:53:42;;;;;;;;;;;;;;;;;;5103250;28;19946;-69
2023/12/27 05:56:08;;;;;;;;;;;;;;;;;;5104975;28;20591;-68
2023/12/27 05:58:34;;;;;;;;;;;;;;;;;;5102696;28;20030;-68
2023/12/27 06:01:00;;;;;;;;;;;;;;;;;;5103426;28;19920;-68
2023/12/27 06:03:26;;;;;;;;;;;;;;;;;;5100276;28;19920;-68
2023/12/27 06:05:52;;;;;;;;;;;;;;;;;;5081422;28;19970;-70
2023/12/27 06:08:20;;;;;;;;;;;;;;;;;;5079447;28;19923;-68
2023/12/27 06:10:46;;;;;;;;;;;;;;;;;;5097082;28;19923;-68
2023/12/27 06:13:12;;;;;;;;;;;;;;;;;;5103803;28;19926;-69
2023/12/27 06:15:38;;;;;;;;;;;;;;;;;;5096561;28;20002;-67
2023/12/27 06:18:04;;;;;;;;;;;;;;;;;;5102586;28;20640;-68
2023/12/27 06:20:30;;;;;;;;;;;;;;;;;;5101410;28;19963;-68
2023/12/27 06:22:56;;;;;;;;;;;;;;;;;;5101864;28;19962;-69
2023/12/27 06:25:22;;;;;;;;;;;;;;;;;;5097524;28;19993;-69
2023/12/27 06:27:48;;;;;;;;;;;;;;;;;;5100873;28;20363;-68
2023/12/27 06:30:14;;;;;;;;;;;;;;;;;;5105404;28;19947;-68
2023/12/27 06:32:40;;;;;;;;;;;;;;;;;;5108232;28;19923;-68
2023/12/27 06:35:06;;;;;;;;;;;;;;;;;;5108699;28;20384;-68
2023/12/27 06:37:32;;;;;;;;;;;;;;;;;;5099717;28;19924;-68
2023/12/27 06:39:58;;;;;;;;;;;;;;;;;;5101923;28;19931;-68
2023/12/27 06:42:24;;;;;;;;;;;;;;;;;;5100519;28;19920;-68
2023/12/27 06:44:49;;;;;;;;;;;;;;;;;;5106121;28;20085;-68
2023/12/27 06:47:18;;;;;;;;;;;;;;;;;;5101242;28;20220;-68
2023/12/27 06:49:46;;;;;;;;;;;;;;;;;;5104481;28;19967;-67
2023/12/27 06:52:12;;;;;;;;;;;;;;;;;;5099582;28;20296;-67
2023/12/27 06:54:38;;;;;;;;;;;;;;;;;;5106938;28;19935;-68
2023/12/27 06:57:04;;;;;;;;;;;;;;;;;;5118821;22;19935;-69
2023/12/27 06:59:30;;;;;;;;;;;;;;;;;;5109234;28;19931;-70
2023/12/27 07:01:55;;;;;;;;;;;;;;;;;;5105924;28;19923;-70
2023/12/27 07:04:21;;;;;;;;;;;;;;;;;;5109063;28;20010;-70
2023/12/27 07:06:47;;;;;;;;;;;;;;;;;;5110089;28;20015;-70
2023/12/27 07:09:13;;;;;;;;;;;;;;;;;;5107715;28;19927;-70
2023/12/27 07:11:39;;;;;;;;;;;;;;;;;;5106546;28;20027;-70
2023/12/27 07:14:05;;;;;;;;;;;;;;;;;;5109631;28;20014;-68
2023/12/27 07:16:31;;;;;;;;;;;;;;;;;;5105466;28;19919;-68
2023/12/27 07:18:58;;;;;;;;;;;;;;;;;;5108581;28;19928;-69
2023/12/27 07:21:23;;;;;;;;;;;;;;;;;;5105539;28;19931;-69
2023/12/27 07:23:49;;;;;;;;;;;;;;;;;;5109984;28;19924;-69
2023/12/27 07:26:15;;;;;;;;;;;;;;;;;;5110388;28;19919;-69
2023/12/27 07:28:41;;;;;;;;;;;;;;;;;;5104735;28;20285;-70
2023/12/27 07:31:07;;;;;;;;;;;;;;;;;;5108589;28;19920;-69
2023/12/27 07:33:33;;;;;;;;;;;;;;;;;;5109321;28;19931;-70
2023/12/27 07:35:59;;;;;;;;;;;;;;;;;;5105675;28;19927;-69
2023/12/27 07:38:26;;;;;;;;;;;;;;;;;;5108002;28;19924;-69
2023/12/27 07:40:52;;;;;;;;;;;;;;;;;;5105855;28;19927;-69
2023/12/27 07:43:22;;;;;;;;;;;;;;;;;;5107620;28;19927;-69
2023/12/27 07:45:48;;;;;;;;;;;;;;;;;;5109918;28;19950;-70
2023/12/27 07:48:14;;;;;;;;;;;;;;;;;;5111342;28;20010;-68
2023/12/27 07:50:40;;;;;;;;;;;;;;;;;;5115090;28;20015;-68
2023/12/27 07:53:06;;;;;;;;;;;;;;;;;;5111912;28;19923;-69
2023/12/27 07:55:32;;;;;;;;;;;;;;;;;;5110041;27;20300;-69
2023/12/27 07:57:58;;;;;;;;;;;;;;;;;;5108509;28;19958;-69
2023/12/27 08:00:24;;;;;;;;;;;;;;;;;;5103939;28;19931;-69
2023/12/27 08:02:50;;;;;;;;;;;;;;;;;;5115266;27;19930;-70
2023/12/27 08:05:16;;;;;;;;;;;;;;;;;;5115229;27;19998;-70
2023/12/27 08:07:42;;;;;;;;;;;;;;;;;;5115168;28;19931;-70
2023/12/27 08:10:08;;;;;;;;;;;;;;;;;;5113484;28;19920;-70
2023/12/27 08:12:34;;;;;;;;;;;;;;;;;;5106024;28;19926;-70
2023/12/27 08:15:00;;;;;;;;;;;;;;;;;;5112509;28;20002;-68
2023/12/27 08:17:26;;;;;;;;;;;;;;;;;;5112986;28;19930;-69
2023/12/27 08:19:52;;;;;;;;;;;;;;;;;;5113965;28;20471;-68
2023/12/27 08:22:18;;;;;;;;;;;;;;;;;;5113004;28;20006;-69
2023/12/27 08:24:44;;;;;;;;;;;;;;;;;;5113568;28;19927;-69
2023/12/27 08:27:10;;;;;;;;;;;;;;;;;;5107239;28;19924;-69
2023/12/27 08:29:36;;;;;;;;;;;;;;;;;;5112401;28;19951;-70
2023/12/27 08:32:02;;;;;;;;;;;;;;;;;;5099671;27;20438;-70
2023/12/27 08:34:29;;;;;;;;;;;;;;;;;;5106404;28;19923;-70
2023/12/27 08:36:55;;;;;;;;;;;;;;;;;;5106525;28;19926;-70
2023/12/27 08:39:21;;;;;;;;;;;;;;;;;;5106552;28;20018;-70
2023/12/27 08:41:47;;;;;;;;;;;;;;;;;;5110741;28;20015;-70
2023/12/27 08:44:13;;;;;;;;;;;;;;;;;;5107128;28;19919;-70
2023/12/27 08:46:39;;;;;;;;;;;;;;;;;;5107710;28;20044;-70
2023/12/27 08:49:05;;;;;;;;;;;;;;;;;;5106078;28;19978;-70
2023/12/27 08:51:31;;;;;;;;;;;;;;;;;;5102450;28;20018;-70
2023/12/27 08:53:58;;;;;;;;;;;;;;;;;;5107984;28;20006;-70
2023/12/27 08:56:24;;;;;;;;;;;;;;;;;;5104203;27;20012;-70
2023/12/27 08:58:50;;;;;;;;;;;;;;;;;;5113579;28;20022;-70
2023/12/27 09:01:17;;;;;;;;;;;;;;;;;;5111642;28;20015;-70
2023/12/27 09:03:43;;;;;;;;;;;;;;;;;;5110059;28;19919;-70
2023/12/27 09:06:09;;;;;;;;;;;;;;;;;;5109789;28;19931;-70
2023/12/27 09:08:35;;;;;;;;;;;;;;;;;;5104457;28;19974;-68
2023/12/27 09:11:01;;;;;;;;;;;;;;;;;;5094625;28;19971;-68
2023/12/27 09:13:27;;;;;;;;;;;;;;;;;;5110873;27;20462;-69
2023/12/27 09:15:53;;;;;;;;;;;;;;;;;;5111108;28;19927;-69
2023/12/27 09:18:18;;;;;;;;;;;;;;;;;;5109703;28;20170;-69
2023/12/27 09:20:45;;;;;;;;;;;;;;;;;;5110444;28;19928;-69
2023/12/27 09:23:11;;;;;;;;;;;;;;;;;;5105799;28;20297;-69
2023/12/27 09:25:38;;;;;;;;;;;;;;;;;;5104992;28;19930;-69
2023/12/27 09:28:04;;;;;;;;;;;;;;;;;;5108228;28;20329;-69
2023/12/27 09:30:30;;;;;;;;;;;;;;;;;;5112044;28;19966;-69
2023/12/27 09:32:55;;;;;;;;;;;;;;;;;;5103126;28;20002;-69
2023/12/27 09:35:21;;;;;;;;;;;;;;;;;;5088904;28;19959;-69
2023/12/27 09:37:47;;;;;;;;;;;;;;;;;;5105472;28;20007;-69
2023/12/27 09:40:13;;;;;;;;;;;;;;;;;;5109677;28;20392;-69
2023/12/27 09:42:39;;;;;;;;;;;;;;;;;;5098775;28;20668;-69
2023/12/27 09:45:05;;;;;;;;;;;;;;;;;;5102681;28;20026;-69
2023/12/27 09:47:31;;;;;;;;;;;;;;;;;;5106924;28;19998;-70
2023/12/27 09:49:57;;;;;;;;;;;;;;;;;;5108176;27;19965;-70
2023/12/27 09:52:23;;;;;;;;;;;;;;;;;;5105271;28;19923;-70
2023/12/27 09:54:49;;;;;;;;;;;;;;;;;;5093800;28;19924;-70
2023/12/27 09:57:15;;;;;;;;;;;;;;;;;;5109798;28;20026;-70
2023/12/27 09:59:41;;;;;;;;;;;;;;;;;;5108611;28;19999;-70
2023/12/27 10:02:07;;;;;;;;;;;;;;;;;;5110585;28;20023;-69
2023/12/27 10:04:33;;;;;;;;;;;;;;;;;;5089875;28;19927;-69
2023/12/27 10:06:59;;;;;;;;;;;;;;;;;;5110920;28;19985;-69
2023/12/27 10:09:25;;;;;;;;;;;;;;;;;;5104386;28;19920;-69
2023/12/27 10:11:51;;;;;;;;;;;;;;;;;;5110678;28;19924;-69
2023/12/27 10:14:16;;;;;;;;;;;;;;;;;;5108886;28;19920;-69
2023/12/27 10:16:42;;;;;;;;;;;;;;;;;;5109640;28;19927;-69
2023/12/27 10:19:08;;;;;;;;;;;;;;;;;;5111059;28;19920;-69
2023/12/27 10:21:34;;;;;;;;;;;;;;;;;;5109125;28;19924;-69
2023/12/27 10:24:00;;;;;;;;;;;;;;;;;;5110076;28;19927;-69
2023/12/27 10:26:26;;;;;;;;;;;;;;;;;;5108103;28;19926;-69
2023/12/27 10:28:52;;;;;;;;;;;;;;;;;;5112104;28;19934;-69
2023/12/27 10:31:18;;;;;;;;;;;;;;;;;;5110804;28;20494;-69
2023/12/27 10:33:44;;;;;;;;;;;;;;;;;;5105661;28;19920;-69
2023/12/27 10:36:10;;;;;;;;;;;;;;;;;;5093579;28;19927;-69
2023/12/27 10:38:36;;;;;;;;;;;;;;;;;;5111697;28;19919;-70
2023/12/27 10:41:02;;;;;;;;;;;;;;;;;;5105041;28;19923;-70
2023/12/27 10:43:28;;;;;;;;;;;;;;;;;;5106831;28;20373;-69
2023/12/27 10:45:54;;;;;;;;;;;;;;;;;;5109655;28;19927;-70
2023/12/27 10:48:20;;;;;;;;;;;;;;;;;;5110198;28;19932;-67
2023/12/27 10:50:46;;;;;;;;;;;;;;;;;;5109176;28;19920;-68
2023/12/27 10:53:12;;;;;;;;;;;;;;;;;;5111811;28;20287;-68
2023/12/27 10:55:38;;;;;;;;;;;;;;;;;;5106349;28;19919;-68
2023/12/27 10:58:04;;;;;;;;;;;;;;;;;;5107213;28;19963;-68
2023/12/27 11:00:30;;;;;;;;;;;;;;;;;;5100197;28;19959;-68
2023/12/27 11:02:57;;;;;;;;;;;;;;;;;;5108764;28;19981;-68
2023/12/27 11:05:23;;;;;;;;;;;;;;;;;;5108412;28;19927;-69
2023/12/27 11:07:49;;;;;;;;;;;;;;;;;;5111554;28;19928;-69
2023/12/27 11:10:15;;;;;;;;;;;;;;;;;;5110280;28;19972;-69
2023/12/27 11:12:41;;;;;;;;;;;;;;;;;;5111394;28;19920;-69
2023/12/27 11:15:07;;;;;;;;;;;;;;;;;;5110679;28;19920;-69
2023/12/27 11:17:33;;;;;;;;;;;;;;;;;;5111413;28;19919;-69
2023/12/27 11:19:59;;;;;;;;;;;;;;;;;;5105544;28;20412;-70
2023/12/27 11:22:25;;;;;;;;;;;;;;;;;;5109107;27;19919;-70
2023/12/27 11:24:51;;;;;;;;;;;;;;;;;;5112335;28;19919;-69
2023/12/27 11:27:18;;;;;;;;;;;;;;;;;;5114565;28;19928;-69
2023/12/27 11:29:44;;;;;;;;;;;;;;;;;;5108899;27;19966;-69
2023/12/27 11:32:10;;;;;;;;;;;;;;;;;;5114042;28;19963;-71
2023/12/27 11:34:36;;;;;;;;;;;;;;;;;;5111001;28;20403;-70
2023/12/27 11:37:02;;;;;;;;;;;;;;;;;;5113185;28;20045;-70
2023/12/27 11:39:28;;;;;;;;;;;;;;;;;;5112337;28;19920;-70
2023/12/27 11:41:54;;;;;;;;;;;;;;;;;;5112472;28;19919;-70
2023/12/27 11:44:19;;;;;;;;;;;;;;;;;;5109016;28;19936;-69
2023/12/27 11:46:45;;;;;;;;;;;;;;;;;;5112865;28;20408;-69
2023/12/27 11:49:11;;;;;;;;;;;;;;;;;;5115399;28;19981;-69
2023/12/27 11:51:38;;;;;;;;;;;;;;;;;;5112194;28;19972;-69
2023/12/27 11:54:04;;;;;;;;;;;;;;;;;;5114419;28;19919;-69
2023/12/27 11:56:30;;;;;;;;;;;;;;;;;;5114819;28;19920;-68
2023/12/27 11:58:56;;;;;;;;;;;;;;;;;;5114832;27;19981;-68
2023/12/27 12:01:22;;;;;;;;;;;;;;;;;;5113768;28;19923;-68
2023/12/27 12:03:48;;;;;;;;;;;;;;;;;;5115080;28;20006;-67
2023/12/27 12:06:14;;;;;;;;;;;;;;;;;;5113380;28;19926;-68
2023/12/27 12:08:40;;;;;;;;;;;;;;;;;;5110588;27;20413;-68
2023/12/27 12:11:06;;;;;;;;;;;;;;;;;;5106943;28;19966;-68
2023/12/27 12:13:32;;;;;;;;;;;;;;;;;;5106543;28;19920;-69
2023/12/27 12:15:58;;;;;;;;;;;;;;;;;;5114529;28;19963;-69
2023/12/27 12:18:24;;;;;;;;;;;;;;;;;;5112812;28;20388;-69
2023/12/27 12:20:50;;;;;;;;;;;;;;;;;;5112848;28;19920;-69
2023/12/27 12:23:16;;;;;;;;;;;;;;;;;;5110277;28;19926;-70
2023/12/27 12:25:42;;;;;;;;;;;;;;;;;;5112042;28;19931;-69
2023/12/27 12:28:08;;;;;;;;;;;;;;;;;;5112486;28;20316;-69
2023/12/27 12:30:35;;;;;;;;;;;;;;;;;;5113528;28;20369;-69
2023/12/27 12:33:01;;;;;;;;;;;;;;;;;;5111354;28;19924;-69
2023/12/27 12:35:27;;;;;;;;;;;;;;;;;;5101634;28;20006;-69
2023/12/27 12:37:53;;;;;;;;;;;;;;;;;;5110102;28;20053;-69
2023/12/27 12:40:19;;;;;;;;;;;;;;;;;;5107351;28;20001;-69
2023/12/27 12:42:45;;;;;;;;;;;;;;;;;;5112289;28;20377;-69
2023/12/27 12:45:11;;;;;;;;;;;;;;;;;;5111061;28;20281;-69
2023/12/27 12:47:37;;;;;;;;;;;;;;;;;;5109950;28;19963;-69
2023/12/27 12:50:03;;;;;;;;;;;;;;;;;;5112013;28;19930;-67
2023/12/27 12:52:29;;;;;;;;;;;;;;;;;;5105045;28;19928;-68
2023/12/27 12:54:55;;;;;;;;;;;;;;;;;;5109200;28;20060;-68
2023/12/27 12:57:21;;;;;;;;;;;;;;;;;;5112865;28;19924;-69
2023/12/27 12:59:48;;;;;;;;;;;;;;;;;;5112697;28;20319;-68
2023/12/27 13:02:14;;;;;;;;;;;;;;;;;;5113003;28;20002;-69
2023/12/27 13:04:40;;;;;;;;;;;;;;;;;;5110655;28;20015;-69
2023/12/27 13:07:07;;;;;;;;;;;;;;;;;;5113401;28;20016;-68
2023/12/27 13:09:33;;;;;;;;;;;;;;;;;;5108370;28;19924;-69
2023/12/27 13:11:59;;;;;;;;;;;;;;;;;;5107020;28;20014;-68
2023/12/27 13:14:26;;;;;;;;;;;;;;;;;;5110026;28;20018;-69
2023/12/27 13:16:52;;;;;;;;;;;;;;;;;;5091679;28;19938;-67
2023/12/27 13:19:18;;;;;;;;;;;;;;;;;;5097231;28;19999;-68
2023/12/27 13:21:44;;;;;;;;;;;;;;;;;;5106086;28;20011;-68
2023/12/27 13:24:10;;;;;;;;;;;;;;;;;;5106646;28;20361;-68
2023/12/27 13:26:37;;;;;;;;;;;;;;;;;;5102217;28;19927;-68
2023/12/27 13:29:03;;;;;;;;;;;;;;;;;;5111976;28;20383;-68
2023/12/27 13:31:29;;;;;;;;;;;;;;;;;;5109553;27;19927;-68
2023/12/27 13:33:55;;;;;;;;;;;;;;;;;;5107621;28;19924;-67
2023/12/27 13:36:21;;;;;;;;;;;;;;;;;;5111971;28;20077;-67
2023/12/27 13:38:47;;;;;;;;;;;;;;;;;;5108966;28;19963;-67
2023/12/27 13:41:12;;;;;;;;;;;;;;;;;;5103833;28;19929;-67
2023/12/27 13:43:39;;;;;;;;;;;;;;;;;;5108852;27;19927;-67
2023/12/27 13:46:05;;;;;;;;;;;;;;;;;;5110442;28;20027;-67
2023/12/27 13:48:32;;;;;;;;;;;;;;;;;;5084937;28;20022;-68
2023/12/27 13:50:59;;;;;;;;;;;;;;;;;;5110719;28;19919;-68
2023/12/27 13:53:25;;;;;;;;;;;;;;;;;;5109050;28;19923;-68
2023/12/27 13:55:50;;;;;;;;;;;;;;;;;;5112492;28;19973;-67
2023/12/27 13:58:16;;;;;;;;;;;;;;;;;;5111585;27;19969;-68
2023/12/27 14:00:42;;;;;;;;;;;;;;;;;;5106946;28;19923;-67
2023/12/27 14:03:09;;;;;;;;;;;;;;;;;;5105573;28;19919;-67
2023/12/27 14:05:37;;;;;;;;;;;;;;;;;;5102826;28;19920;-67
2023/12/27 14:08:03;;;;;;;;;;;;;;;;;;5109775;28;20015;-67
2023/12/27 14:10:29;;;;;;;;;;;;;;;;;;5111340;28;20357;-67
2023/12/27 14:12:55;;;;;;;;;;;;;;;;;;5110597;28;19927;-68
2023/12/27 14:15:22;;;;;;;;;;;;;;;;;;5095527;28;19966;-68
2023/12/27 14:17:49;;;;;;;;;;;;;;;;;;5092160;28;19932;-69
2023/12/27 14:20:15;;;;;;;;;;;;;;;;;;5110937;27;20018;-69
2023/12/27 14:22:41;;;;;;;;;;;;;;;;;;5110166;28;20002;-68
2023/12/27 14:25:10;;;;;;;;;;;;;;;;;;5111280;28;19935;-68
2023/12/27 14:27:36;;;;;;;;;;;;;;;;;;5109690;28;19930;-69
2023/12/27 14:30:02;;;;;;;;;;;;;;;;;;5110809;28;19924;-68
2023/12/27 14:32:28;;;;;;;;;;;;;;;;;;5109750;28;20369;-68
2023/12/27 14:34:54;;;;;;;;;;;;;;;;;;5111923;28;19942;-69
2023/12/27 14:37:20;;;;;;;;;;;;;;;;;;5110191;28;20433;-67
2023/12/27 14:39:46;;;;;;;;;;;;;;;;;;5110017;28;19946;-67
2023/12/27 14:42:12;;;;;;;;;;;;;;;;;;5111784;28;19919;-67
2023/12/27 14:44:38;;;;;;;;;;;;;;;;;;5104579;28;19919;-68
2023/12/27 14:47:08;;;;;;;;;;;;;;;;;;5101145;28;20003;-69
2023/12/27 14:49:34;;;;;;;;;;;;;;;;;;5106257;28;19919;-68
2023/12/27 14:52:00;;;;;;;;;;;;;;;;;;5107646;28;19926;-66
2023/12/27 14:54:26;;;;;;;;;;;;;;;;;;5109357;28;19952;-67
2023/12/27 14:56:52;;;;;;;;;;;;;;;;;;5088575;28;19930;-67
2023/12/27 14:59:18;;;;;;;;;;;;;;;;;;5102833;28;19932;-68
2023/12/27 15:01:44;;;;;;;;;;;;;;;;;;5103765;28;19958;-68
2023/12/27 15:04:10;;;;;;;;;;;;;;;;;;5097155;28;19984;-68
2023/12/27 15:06:36;;;;;;;;;;;;;;;;;;5104438;28;20002;-68
2023/12/27 15:09:03;;;;;;;;;;;;;;;;;;5109395;28;19928;-68
2023/12/27 15:11:29;;;;;;;;;;;;;;;;;;5104136;28;19927;-68
2023/12/27 15:13:55;;;;;;;;;;;;;;;;;;5108200;28;19919;-68
2023/12/27 15:16:21;;;;;;;;;;;;;;;;;;5106311;28;19919;-68
2023/12/27 15:18:47;;;;;;;;;;;;;;;;;;5088757;28;19969;-69
2023/12/27 15:21:13;;;;;;;;;;;;;;;;;;5107014;28;19939;-68
2023/12/27 15:23:40;;;;;;;;;;;;;;;;;;5109060;28;19924;-68
2023/12/27 15:26:06;;;;;;;;;;;;;;;;;;5106251;28;20404;-68
2023/12/27 15:28:32;;;;;;;;;;;;;;;;;;5109291;28;19928;-68
2023/12/27 15:30:58;;;;;;;;;;;;;;;;;;5109363;28;19924;-68
2023/12/27 15:33:24;;;;;;;;;;;;;;;;;;5108587;28;19923;-69
2023/12/27 15:35:50;;;;;;;;;;;;;;;;;;5102728;28;19924;-67
2023/12/27 15:38:16;;;;;;;;;;;;;;;;;;5107049;28;20273;-67
2023/12/27 15:40:42;;;;;;;;;;;;;;;;;;5109152;28;19919;-67
2023/12/27 15:43:07;;;;;;;;;;;;;;;;;;5105857;28;19924;-67
2023/12/27 15:45:33;;;;;;;;;;;;;;;;;;5104694;28;19931;-67
2023/12/27 15:47:59;;;;;;;;;;;;;;;;;;5108008;28;19927;-68
2023/12/27 15:50:25;;;;;;;;;;;;;;;;;;5099738;28;20007;-68
2023/12/27 15:52:51;;;;;;;;;;;;;;;;;;5105826;28;20362;-68
2023/12/27 15:55:19;;;;;;;;;;;;;;;;;;5108605;28;19939;-69
2023/12/27 15:57:45;;;;;;;;;;;;;;;;;;5106277;28;19935;-68
2023/12/27 16:00:10;;;;;;;;;;;;;;;;;;5089305;28;19924;-68
2023/12/27 16:02:36;;;;;;;;;;;;;;;;;;5106015;28;19920;-68
2023/12/27 16:05:02;;;;;;;;;;;;;;;;;;5104045;28;20631;-70
2023/12/27 16:07:28;;;;;;;;;;;;;;;;;;5100834;28;19928;-69
2023/12/27 16:09:55;;;;;;;;;;;;;;;;;;5106869;28;19923;-69
2023/12/27 16:12:21;;;;;;;;;;;;;;;;;;5112141;27;19976;-66
2023/12/27 16:14:47;;;;;;;;;;;;;;;;;;5108372;28;20002;-68
2023/12/27 16:17:13;;;;;;;;;;;;;;;;;;5109157;28;20032;-68
2023/12/27 16:19:40;;;;;;;;;;;;;;;;;;5102402;28;20327;-67
2023/12/27 16:22:06;;;;;;;;;;;;;;;;;;5109451;27;20336;-68
2023/12/27 16:24:32;;;;;;;;;;;;;;;;;;5111770;28;19920;-68
2023/12/27 16:26:58;;;;;;;;;;;;;;;;;;5111244;27;19923;-68
2023/12/27 16:29:23;;;;;;;;;;;;;;;;;;5107361;28;20385;-68
2023/12/27 16:31:49;;;;;;;;;;;;;;;;;;5111465;28;19928;-68
2023/12/27 16:34:15;;;;;;;;;;;;;;;;;;5110345;28;20300;-67
2023/12/27 16:36:41;;;;;;;;;;;;;;;;;;5099385;28;19927;-69